Time,TemperatureF,DewpointF,PressureIn,WindDirection,WindDirectionDegrees,WindSpeedMPH,WindSpeedGustMPH,Humidity,HourlyPrecipIn,Conditions,Clouds,dailyrainin,SolarRadiationWatts/m^2,SoftwareType,DateUTC
2013-07-22 00:02:00,58.0,44.0,-100.00,SE,138,7.0,14.0,60,0.00,,,0.00,0.000000,,2013-07-22 05:02:00,
2013-07-22 00:22:00,57.0,45.0,-100.00,SSE,148,7.0,12.0,63,0.00,,,0.00,0.000000,,2013-07-22 05:22:00,
2013-07-22 00:32:00,57.0,45.0,-100.00,SSE,148,7.0,12.0,63,0.00,,,0.00,0.000000,,2013-07-22 05:32:00,
2013-07-22 00:43:00,57.0,45.0,-100.00,SSE,148,7.0,12.0,63,0.00,,,0.00,0.000000,,2013-07-22 05:43:00,
2013-07-22 00:52:00,57.0,45.0,-100.00,SSE,148,7.0,12.0,63,0.00,,,0.00,0.000000,,2013-07-22 05:52:00,
2013-07-22 01:01:00,57.0,45.0,-100.00,SSE,148,7.0,12.0,63,0.00,,,0.00,0.000000,,2013-07-22 06:01:00,
2013-07-22 01:22:00,57.0,45.0,-100.00,SSE,155,7.0,15.0,63,0.00,,,0.00,0.000000,,2013-07-22 06:22:00,
2013-07-22 01:33:00,57.0,45.0,-100.00,SSE,155,7.0,15.0,63,0.00,,,0.00,0.000000,,2013-07-22 06:33:00,
2013-07-22 01:43:00,57.0,45.0,-100.00,SSE,155,7.0,15.0,63,0.00,,,0.00,0.000000,,2013-07-22 06:43:00,
2013-07-22 01:52:00,57.0,45.0,-100.00,SSE,155,7.0,15.0,63,0.00,,,0.00,0.000000,,2013-07-22 06:52:00,
2013-07-22 02:01:00,57.0,45.0,-100.00,SSE,155,7.0,15.0,63,0.00,,,0.00,0.000000,,2013-07-22 07:01:00,
2013-07-22 02:22:00,56.0,44.0,-100.00,SSE,158,8.0,14.0,65,0.00,,,0.00,0.000000,,2013-07-22 07:22:00,
2013-07-22 02:33:00,56.0,44.0,-100.00,SSE,158,8.0,14.0,65,0.00,,,0.00,0.000000,,2013-07-22 07:33:00,
2013-07-22 02:43:00,56.0,44.0,-100.00,SSE,158,8.0,14.0,65,0.00,,,0.00,0.000000,,2013-07-22 07:43:00,
2013-07-22 02:53:00,56.0,44.0,-100.00,SSE,158,8.0,14.0,65,0.00,,,0.00,0.000000,,2013-07-22 07:53:00,
2013-07-22 03:02:00,56.0,44.0,-100.00,SSE,158,8.0,14.0,65,0.00,,,0.00,0.000000,,2013-07-22 08:02:00,
2013-07-22 03:22:00,57.0,47.0,-100.00,SSE,148,8.0,16.0,70,0.00,,,0.00,0.000000,,2013-07-22 08:22:00,
2013-07-22 03:32:00,57.0,47.0,-100.00,SSE,148,8.0,16.0,70,0.00,,,0.00,0.000000,,2013-07-22 08:32:00,
2013-07-22 03:43:00,57.0,47.0,-100.00,SSE,148,8.0,16.0,70,0.00,,,0.00,0.000000,,2013-07-22 08:43:00,
2013-07-22 03:52:00,57.0,47.0,-100.00,SSE,148,8.0,16.0,70,0.00,,,0.00,0.000000,,2013-07-22 08:52:00,
2013-07-22 04:02:00,57.0,47.0,-100.00,SSE,148,8.0,16.0,70,0.00,,,0.00,0.000000,,2013-07-22 09:02:00,
2013-07-22 04:22:00,58.0,51.0,-100.00,South,182,6.0,16.0,78,0.00,,,0.00,0.000000,,2013-07-22 09:22:00,
2013-07-22 04:33:00,58.0,51.0,-100.00,South,182,6.0,16.0,78,0.00,,,0.00,0.000000,,2013-07-22 09:33:00,
2013-07-22 04:42:00,58.0,51.0,-100.00,South,182,6.0,16.0,78,0.00,,,0.00,0.000000,,2013-07-22 09:42:00,
2013-07-22 04:52:00,58.0,51.0,-100.00,South,182,6.0,16.0,78,0.00,,,0.00,0.000000,,2013-07-22 09:52:00,
2013-07-22 05:02:00,58.0,51.0,-100.00,South,182,6.0,16.0,78,0.00,,,0.00,0.000000,,2013-07-22 10:02:00,
2013-07-22 05:22:00,60.0,58.0,-100.00,South,190,8.0,15.0,92,0.01,,,0.01,0.000000,,2013-07-22 10:22:00,
2013-07-22 05:32:00,60.0,58.0,-100.00,South,190,8.0,15.0,92,0.01,,,0.01,0.000000,,2013-07-22 10:32:00,
2013-07-22 05:43:00,60.0,58.0,-100.00,South,190,8.0,15.0,92,0.01,,,0.01,0.000000,,2013-07-22 10:43:00,
2013-07-22 05:53:00,60.0,58.0,-100.00,South,190,8.0,15.0,92,0.01,,,0.01,0.000000,,2013-07-22 10:53:00,
2013-07-22 06:02:00,60.0,58.0,-100.00,South,190,8.0,15.0,92,0.01,,,0.01,0.000000,,2013-07-22 11:02:00,
2013-07-22 06:23:00,61.0,58.0,-100.00,SSW,197,9.0,18.0,91,0.00,,,0.01,1.000000,,2013-07-22 11:23:00,
2013-07-22 06:32:00,61.0,58.0,-100.00,SSW,197,9.0,18.0,91,0.00,,,0.01,1.000000,,2013-07-22 11:32:00,
2013-07-22 06:43:00,61.0,58.0,-100.00,SSW,197,9.0,18.0,91,0.00,,,0.01,1.000000,,2013-07-22 11:43:00,
2013-07-22 06:52:00,61.0,58.0,-100.00,SSW,197,9.0,18.0,91,0.00,,,0.01,1.000000,,2013-07-22 11:52:00,
2013-07-22 07:02:00,61.0,58.0,-100.00,SSW,197,9.0,18.0,91,0.00,,,0.01,1.000000,,2013-07-22 12:02:00,
2013-07-22 07:22:00,63.0,60.0,-100.00,SW,220,7.0,21.0,90,0.00,,,0.01,37.000000,,2013-07-22 12:22:00,
2013-07-22 07:33:00,63.0,60.0,-100.00,SW,220,7.0,21.0,90,0.00,,,0.01,37.000000,,2013-07-22 12:33:00,
2013-07-22 07:43:00,63.0,60.0,-100.00,SW,220,7.0,21.0,90,0.00,,,0.01,37.000000,,2013-07-22 12:43:00,
2013-07-22 07:53:00,63.0,60.0,-100.00,SW,220,7.0,21.0,90,0.00,,,0.01,37.000000,,2013-07-22 12:53:00,
2013-07-22 08:01:00,63.0,60.0,-100.00,SW,220,7.0,21.0,90,0.00,,,0.01,37.000000,,2013-07-22 13:01:00,
2013-07-22 08:22:00,67.0,63.0,-100.00,SW,228,7.0,16.0,86,0.00,,,0.01,145.000000,,2013-07-22 13:22:00,
2013-07-22 08:32:00,67.0,63.0,-100.00,SW,228,7.0,16.0,86,0.00,,,0.01,145.000000,,2013-07-22 13:32:00,
2013-07-22 08:43:00,67.0,63.0,-100.00,SW,228,7.0,16.0,86,0.00,,,0.01,145.000000,,2013-07-22 13:43:00,
2013-07-22 08:53:00,67.0,63.0,-100.00,SW,228,7.0,16.0,86,0.00,,,0.01,145.000000,,2013-07-22 13:53:00,
2013-07-22 09:01:00,67.0,63.0,-100.00,SW,228,7.0,16.0,86,0.00,,,0.01,145.000000,,2013-07-22 14:01:00,
2013-07-22 09:22:00,72.0,65.0,-100.00,SW,233,8.0,16.0,79,0.00,,,0.01,296.000000,,2013-07-22 14:22:00,
2013-07-22 09:32:00,72.0,65.0,-100.00,SW,233,8.0,16.0,79,0.00,,,0.01,296.000000,,2013-07-22 14:32:00,
2013-07-22 09:43:00,72.0,65.0,-100.00,SW,233,8.0,16.0,79,0.00,,,0.01,296.000000,,2013-07-22 14:43:00,
2013-07-22 09:53:00,72.0,65.0,-100.00,SW,233,8.0,16.0,79,0.00,,,0.01,296.000000,,2013-07-22 14:53:00,
2013-07-22 10:02:00,72.0,65.0,-100.00,SW,233,8.0,16.0,79,0.00,,,0.01,296.000000,,2013-07-22 15:02:00,
2013-07-22 10:22:00,73.0,62.0,-100.00,West,266,7.0,16.0,69,0.00,,,0.01,498.000000,,2013-07-22 15:22:00,
2013-07-22 10:33:00,73.0,62.0,-100.00,West,266,7.0,16.0,69,0.00,,,0.01,498.000000,,2013-07-22 15:33:00,
2013-07-22 10:43:00,73.0,62.0,-100.00,West,266,7.0,16.0,69,0.00,,,0.01,498.000000,,2013-07-22 15:43:00,
2013-07-22 10:52:00,73.0,62.0,-100.00,West,266,7.0,16.0,69,0.00,,,0.01,498.000000,,2013-07-22 15:52:00,
2013-07-22 11:01:00,73.0,62.0,-100.00,West,266,7.0,16.0,69,0.00,,,0.01,498.000000,,2013-07-22 16:01:00,
2013-07-22 11:22:00,76.0,60.0,-100.00,West,261,9.0,19.0,57,0.00,,,0.01,819.000000,,2013-07-22 16:22:00,
2013-07-22 11:32:00,76.0,60.0,-100.00,West,261,9.0,19.0,57,0.00,,,0.01,819.000000,,2013-07-22 16:32:00,
2013-07-22 11:43:00,76.0,60.0,-100.00,West,261,9.0,19.0,57,0.00,,,0.01,819.000000,,2013-07-22 16:43:00,
2013-07-22 11:52:00,76.0,60.0,-100.00,West,261,9.0,19.0,57,0.00,,,0.01,819.000000,,2013-07-22 16:52:00,
2013-07-22 12:01:00,76.0,60.0,-100.00,West,261,9.0,19.0,57,0.00,,,0.01,819.000000,,2013-07-22 17:01:00,
2013-07-22 12:04:00,71.0,56.0,-100.00,West,280,11.0,20.0,59,0.00,,,0.01,750.000000,,2013-07-22 17:04:00,
2013-07-22 12:23:00,71.0,56.0,-100.00,West,280,11.0,20.0,59,0.00,,,0.01,750.000000,,2013-07-22 17:23:00,
2013-07-22 12:33:00,71.0,56.0,-100.00,West,280,11.0,20.0,59,0.00,,,0.01,750.000000,,2013-07-22 17:33:00,
2013-07-22 12:43:00,71.0,56.0,-100.00,West,280,11.0,20.0,59,0.00,,,0.01,750.000000,,2013-07-22 17:43:00,
2013-07-22 12:52:00,71.0,56.0,-100.00,West,280,11.0,20.0,59,0.00,,,0.01,750.000000,,2013-07-22 17:52:00,
2013-07-22 13:04:00,65.0,53.0,-100.00,West,268,9.0,22.0,64,0.00,,,0.01,534.000000,,2013-07-22 18:04:00,
2013-07-22 13:29:00,65.0,53.0,-100.00,West,268,9.0,22.0,64,0.00,,,0.01,534.000000,,2013-07-22 18:29:00,
2013-07-22 13:39:00,65.0,53.0,-100.00,West,268,9.0,22.0,64,0.00,,,0.01,534.000000,,2013-07-22 18:39:00,
2013-07-22 13:54:00,65.0,53.0,-100.00,West,268,9.0,22.0,64,0.00,,,0.01,534.000000,,2013-07-22 18:54:00,
2013-07-22 14:04:00,67.0,54.0,-100.00,West,265,9.0,16.0,63,0.00,,,0.01,370.000000,,2013-07-22 19:04:00,
2013-07-22 14:26:00,67.0,54.0,-100.00,West,265,9.0,16.0,63,0.00,,,0.01,370.000000,,2013-07-22 19:26:00,
2013-07-22 14:37:00,67.0,54.0,-100.00,West,265,9.0,16.0,63,0.00,,,0.01,370.000000,,2013-07-22 19:37:00,
2013-07-22 14:46:00,67.0,54.0,-100.00,West,265,9.0,16.0,63,0.00,,,0.01,370.000000,,2013-07-22 19:46:00,
2013-07-22 14:55:00,67.0,54.0,-100.00,West,265,9.0,16.0,63,0.00,,,0.01,370.000000,,2013-07-22 19:55:00,
2013-07-22 15:22:00,67.0,55.0,-100.00,West,279,9.0,17.0,65,0.00,,,0.01,351.000000,,2013-07-22 20:22:00,
2013-07-22 15:32:00,67.0,55.0,-100.00,West,279,9.0,17.0,65,0.00,,,0.01,351.000000,,2013-07-22 20:32:00,
2013-07-22 15:43:00,67.0,55.0,-100.00,West,279,9.0,17.0,65,0.00,,,0.01,351.000000,,2013-07-22 20:43:00,
2013-07-22 15:52:00,67.0,55.0,-100.00,West,279,9.0,17.0,65,0.00,,,0.01,351.000000,,2013-07-22 20:52:00,
2013-07-22 16:01:00,67.0,55.0,-100.00,West,279,9.0,17.0,65,0.00,,,0.01,351.000000,,2013-07-22 21:01:00,
2013-07-22 16:22:00,66.0,53.0,-100.00,WNW,287,8.0,20.0,64,0.00,,,0.01,318.000000,,2013-07-22 21:22:00,
2013-07-22 16:33:00,66.0,53.0,-100.00,WNW,287,8.0,20.0,64,0.00,,,0.01,318.000000,,2013-07-22 21:33:00,
2013-07-22 16:43:00,66.0,53.0,-100.00,WNW,287,8.0,20.0,64,0.00,,,0.01,318.000000,,2013-07-22 21:43:00,
2013-07-22 16:53:00,66.0,53.0,-100.00,WNW,287,8.0,20.0,64,0.00,,,0.01,318.000000,,2013-07-22 21:53:00,
2013-07-22 17:01:00,66.0,53.0,-100.00,WNW,287,8.0,20.0,64,0.00,,,0.01,318.000000,,2013-07-22 22:01:00,
2013-07-22 17:22:00,66.0,53.0,-100.00,WNW,292,9.0,17.0,64,0.00,,,0.01,261.000000,,2013-07-22 22:22:00,
2013-07-22 17:32:00,66.0,53.0,-100.00,WNW,292,9.0,17.0,64,0.00,,,0.01,261.000000,,2013-07-22 22:32:00,
2013-07-22 17:43:00,66.0,53.0,-100.00,WNW,292,9.0,17.0,64,0.00,,,0.01,261.000000,,2013-07-22 22:43:00,
2013-07-22 17:52:00,66.0,53.0,-100.00,WNW,292,9.0,17.0,64,0.00,,,0.01,261.000000,,2013-07-22 22:52:00,
2013-07-22 18:01:00,66.0,53.0,-100.00,WNW,292,9.0,17.0,64,0.00,,,0.01,261.000000,,2013-07-22 23:01:00,
2013-07-22 18:22:00,64.0,51.0,-100.00,WNW,292,10.0,22.0,62,0.00,,,0.01,168.000000,,2013-07-22 23:22:00,
2013-07-22 18:32:00,64.0,51.0,-100.00,WNW,292,10.0,22.0,62,0.00,,,0.01,168.000000,,2013-07-22 23:32:00,
2013-07-22 18:43:00,64.0,51.0,-100.00,WNW,292,10.0,22.0,62,0.00,,,0.01,168.000000,,2013-07-22 23:43:00,
2013-07-22 18:52:00,64.0,51.0,-100.00,WNW,292,10.0,22.0,62,0.00,,,0.01,168.000000,,2013-07-22 23:52:00,
2013-07-22 19:01:00,64.0,51.0,-100.00,WNW,292,10.0,22.0,62,0.00,,,0.01,168.000000,,2013-07-23 00:01:00,
2013-07-22 19:22:00,66.0,50.0,-100.00,WNW,296,7.0,16.0,57,0.00,,,0.01,253.000000,,2013-07-23 00:22:00,
2013-07-22 19:32:00,66.0,50.0,-100.00,WNW,296,7.0,16.0,57,0.00,,,0.01,253.000000,,2013-07-23 00:32:00,
2013-07-22 19:43:00,66.0,50.0,-100.00,WNW,296,7.0,16.0,57,0.00,,,0.01,253.000000,,2013-07-23 00:43:00,
2013-07-22 19:52:00,66.0,50.0,-100.00,WNW,296,7.0,16.0,57,0.00,,,0.01,253.000000,,2013-07-23 00:52:00,
2013-07-22 20:01:00,66.0,50.0,-100.00,WNW,296,7.0,16.0,57,0.00,,,0.01,253.000000,,2013-07-23 01:01:00,
2013-07-22 20:22:00,64.0,49.0,-100.00,WNW,302,6.0,15.0,59,0.00,,,0.01,171.000000,,2013-07-23 01:22:00,
2013-07-22 20:32:00,64.0,49.0,-100.00,WNW,302,6.0,15.0,59,0.00,,,0.01,171.000000,,2013-07-23 01:32:00,
2013-07-22 20:43:00,64.0,49.0,-100.00,WNW,302,6.0,15.0,59,0.00,,,0.01,171.000000,,2013-07-23 01:43:00,
2013-07-22 20:53:00,64.0,49.0,-100.00,WNW,302,6.0,15.0,59,0.00,,,0.01,171.000000,,2013-07-23 01:53:00,
2013-07-22 21:02:00,64.0,49.0,-100.00,WNW,302,6.0,15.0,59,0.00,,,0.01,171.000000,,2013-07-23 02:02:00,
2013-07-22 21:22:00,62.0,50.0,-100.00,NW,323,7.0,18.0,65,0.00,,,0.01,22.000000,,2013-07-23 02:22:00,
2013-07-22 21:33:00,62.0,50.0,-100.00,NW,323,7.0,18.0,65,0.00,,,0.01,22.000000,,2013-07-23 02:33:00,
2013-07-22 21:43:00,62.0,50.0,-100.00,NW,323,7.0,18.0,65,0.00,,,0.01,22.000000,,2013-07-23 02:43:00,
2013-07-22 21:53:00,62.0,50.0,-100.00,NW,323,7.0,18.0,65,0.00,,,0.01,22.000000,,2013-07-23 02:53:00,
2013-07-22 22:01:00,62.0,50.0,-100.00,NW,323,7.0,18.0,65,0.00,,,0.01,22.000000,,2013-07-23 03:01:00,
2013-07-22 22:22:00,60.0,49.0,-100.00,NNW,337,6.0,14.0,68,0.00,,,0.01,0.000000,,2013-07-23 03:22:00,
2013-07-22 22:33:00,60.0,49.0,-100.00,NNW,337,6.0,14.0,68,0.00,,,0.01,0.000000,,2013-07-23 03:33:00,
2013-07-22 22:43:00,60.0,49.0,-100.00,NNW,337,6.0,14.0,68,0.00,,,0.01,0.000000,,2013-07-23 03:43:00,
2013-07-22 22:52:00,60.0,49.0,-100.00,NNW,337,6.0,14.0,68,0.00,,,0.01,0.000000,,2013-07-23 03:52:00,
2013-07-22 23:01:00,60.0,49.0,-100.00,NNW,337,6.0,14.0,68,0.00,,,0.01,0.000000,,2013-07-23 04:01:00,
2013-07-22 23:22:00,59.0,50.0,-100.00,NNW,342,8.0,15.0,71,0.00,,,0.01,0.000000,,2013-07-23 04:22:00,
2013-07-22 23:32:00,59.0,50.0,-100.00,NNW,342,8.0,15.0,71,0.00,,,0.01,0.000000,,2013-07-23 04:32:00,
2013-07-22 23:43:00,59.0,50.0,-100.00,NNW,342,8.0,15.0,71,0.00,,,0.01,0.000000,,2013-07-23 04:43:00,
2013-07-22 23:53:00,59.0,50.0,-100.00,NNW,342,8.0,15.0,71,0.00,,,0.01,0.000000,,2013-07-23 04:53:00,